Terminal Aerodrome Forecast
Issued by NWS

Home | Current Version | Previous Version | Text Only | Print | Product List | Glossary On
Versions: 1 2 3 4 5 6 7 8 9 10 11 12 13 14 15 16 17 18 19 20
000
FTUS46 KLOX 271731
TAFLGB
TAF
KLGB 271731Z 2718/2818 VRB04KT P6SM OVC018
     FM271900 20008KT P6SM FEW025
     FM280000 29010KT P6SM SCT250
     FM280400 VRB03KT P6SM BKN017
     FM280800 VRB03KT P6SM OVC009
     FM281400 17005KT P6SM OVC012=

USA.gov is the U.S. government's official web portal to all federal, state and local government web resources and services.